sensor_id;sensor_type;location;lat;lon;timestamp;temperature;humidity
37594;DHT22;23441;50.856;6.076;2024-02-04T00:01:18;9.20;99.90
37594;DHT22;23441;50.856;6.076;2024-02-04T00:04:04;9.30;99.90
37594;DHT22;23441;50.856;6.076;2024-02-04T00:06:50;9.20;99.90
37594;DHT22;23441;50.856;6.076;2024-02-04T00:09:36;9.20;99.90
37594;DHT22;23441;50.856;6.076;2024-02-04T00:12:22;9.30;99.90
37594;DHT22;23441;50.856;6.076;2024-02-04T00:15:08;9.20;99.90
37594;DHT22;23441;50.856;6.076;2024-02-04T00:17:54;9.30;99.90
37594;DHT22;23441;50.856;6.076;2024-02-04T00:20:40;9.30;99.90
37594;DHT22;23441;50.856;6.076;2024-02-04T00:23:26;9.20;99.90
37594;DHT22;23441;50.856;6.076;2024-02-04T00:26:12;9.30;99.90
37594;DHT22;23441;50.856;6.076;2024-02-04T00:28:58;9.30;99.90
37594;DHT22;23441;50.856;6.076;2024-02-04T00:31:44;9.20;99.90
37594;DHT22;23441;50.856;6.076;2024-02-04T00:34:30;9.30;99.90
37594;DHT22;23441;50.856;6.076;2024-02-04T00:37:16;9.30;99.90
37594;DHT22;23441;50.856;6.076;2024-02-04T00:40:02;9.20;99.90
37594;DHT22;23441;50.856;6.076;2024-02-04T00:42:49;9.20;99.90
37594;DHT22;23441;50.856;6.076;2024-02-04T00:45:35;9.30;99.90
37594;DHT22;23441;50.856;6.076;2024-02-04T00:48:21;9.20;99.90
37594;DHT22;23441;50.856;6.076;2024-02-04T00:51:07;9.20;99.90
37594;DHT22;23441;50.856;6.076;2024-02-04T00:53:53;9.30;99.90
37594;DHT22;23441;50.856;6.076;2024-02-04T00:56:39;9.30;99.90
37594;DHT22;23441;50.856;6.076;2024-02-04T00:59:25;9.30;99.90
37594;DHT22;23441;50.856;6.076;2024-02-04T01:02:11;9.20;99.90
37594;DHT22;23441;50.856;6.076;2024-02-04T01:04:57;9.30;99.90
37594;DHT22;23441;50.856;6.076;2024-02-04T01:07:43;9.20;99.90
37594;DHT22;23441;50.856;6.076;2024-02-04T01:10:29;9.30;99.90
37594;DHT22;23441;50.856;6.076;2024-02-04T01:13:15;9.30;99.90
37594;DHT22;23441;50.856;6.076;2024-02-04T01:16:01;9.30;99.90
37594;DHT22;23441;50.856;6.076;2024-02-04T01:18:47;9.30;99.90
37594;DHT22;23441;50.856;6.076;2024-02-04T01:21:33;9.30;99.90
37594;DHT22;23441;50.856;6.076;2024-02-04T01:24:19;9.30;99.90
37594;DHT22;23441;50.856;6.076;2024-02-04T01:27:05;9.30;99.90
37594;DHT22;23441;50.856;6.076;2024-02-04T01:29:51;9.30;99.90
37594;DHT22;23441;50.856;6.076;2024-02-04T01:32:39;9.30;99.90
37594;DHT22;23441;50.856;6.076;2024-02-04T01:35:25;9.30;99.90
37594;DHT22;23441;50.856;6.076;2024-02-04T01:38:11;9.40;99.90
37594;DHT22;23441;50.856;6.076;2024-02-04T01:40:57;9.30;99.90
37594;DHT22;23441;50.856;6.076;2024-02-04T01:43:43;9.40;99.90
37594;DHT22;23441;50.856;6.076;2024-02-04T01:46:29;9.30;99.90
37594;DHT22;23441;50.856;6.076;2024-02-04T01:49:15;9.30;99.90
37594;DHT22;23441;50.856;6.076;2024-02-04T01:52:02;9.30;99.90
37594;DHT22;23441;50.856;6.076;2024-02-04T01:54:49;9.30;99.90
37594;DHT22;23441;50.856;6.076;2024-02-04T01:57:37;9.30;99.90
37594;DHT22;23441;50.856;6.076;2024-02-04T02:00:23;9.30;99.90
37594;DHT22;23441;50.856;6.076;2024-02-04T02:03:11;9.40;99.90
37594;DHT22;23441;50.856;6.076;2024-02-04T02:05:59;9.30;99.90
37594;DHT22;23441;50.856;6.076;2024-02-04T02:08:45;9.40;99.90
37594;DHT22;23441;50.856;6.076;2024-02-04T02:11:44;9.40;99.90
37594;DHT22;23441;50.856;6.076;2024-02-04T02:14:33;9.40;99.90
37594;DHT22;23441;50.856;6.076;2024-02-04T02:17:27;9.40;99.90
37594;DHT22;23441;50.856;6.076;2024-02-04T02:20:23;9.40;99.90
37594;DHT22;23441;50.856;6.076;2024-02-04T02:23:14;9.40;99.90
37594;DHT22;23441;50.856;6.076;2024-02-04T02:26:04;9.40;99.90
37594;DHT22;23441;50.856;6.076;2024-02-04T02:28:52;9.40;99.90
37594;DHT22;23441;50.856;6.076;2024-02-04T02:31:39;9.40;99.90
37594;DHT22;23441;50.856;6.076;2024-02-04T02:34:26;9.50;99.90
37594;DHT22;23441;50.856;6.076;2024-02-04T02:37:33;9.50;99.90
37594;DHT22;23441;50.856;6.076;2024-02-04T02:40:29;9.40;99.90
37594;DHT22;23441;50.856;6.076;2024-02-04T02:43:16;9.40;99.90
37594;DHT22;23441;50.856;6.076;2024-02-04T02:46:02;9.50;99.90
37594;DHT22;23441;50.856;6.076;2024-02-04T02:48:49;9.50;99.90
37594;DHT22;23441;50.856;6.076;2024-02-04T02:51:35;9.50;99.90
37594;DHT22;23441;50.856;6.076;2024-02-04T02:54:21;9.50;99.90
37594;DHT22;23441;50.856;6.076;2024-02-04T02:57:07;9.50;99.90
37594;DHT22;23441;50.856;6.076;2024-02-04T02:59:53;9.50;99.90
37594;DHT22;23441;50.856;6.076;2024-02-04T03:02:39;9.50;99.90
37594;DHT22;23441;50.856;6.076;2024-02-04T03:05:25;9.50;99.90
37594;DHT22;23441;50.856;6.076;2024-02-04T03:08:11;9.50;99.90
37594;DHT22;23441;50.856;6.076;2024-02-04T03:10:57;9.50;99.90
37594;DHT22;23441;50.856;6.076;2024-02-04T03:13:43;9.50;99.90
37594;DHT22;23441;50.856;6.076;2024-02-04T03:16:29;9.50;99.90
37594;DHT22;23441;50.856;6.076;2024-02-04T03:19:14;9.50;99.90
37594;DHT22;23441;50.856;6.076;2024-02-04T03:22:00;9.50;99.90
37594;DHT22;23441;50.856;6.076;2024-02-04T03:24:47;9.50;99.90
37594;DHT22;23441;50.856;6.076;2024-02-04T03:27:33;9.50;99.90
37594;DHT22;23441;50.856;6.076;2024-02-04T03:30:19;9.50;99.90
37594;DHT22;23441;50.856;6.076;2024-02-04T03:33:05;9.50;99.90
37594;DHT22;23441;50.856;6.076;2024-02-04T03:35:50;9.50;99.90
37594;DHT22;23441;50.856;6.076;2024-02-04T03:38:36;9.50;99.90
37594;DHT22;23441;50.856;6.076;2024-02-04T03:41:22;9.50;99.90
37594;DHT22;23441;50.856;6.076;2024-02-04T03:44:08;9.50;99.90
37594;DHT22;23441;50.856;6.076;2024-02-04T03:46:54;9.50;99.90
37594;DHT22;23441;50.856;6.076;2024-02-04T03:49:40;9.50;99.90
37594;DHT22;23441;50.856;6.076;2024-02-04T03:52:26;9.50;99.90
37594;DHT22;23441;50.856;6.076;2024-02-04T03:55:12;9.50;99.90
37594;DHT22;23441;50.856;6.076;2024-02-04T03:57:58;9.50;99.90
37594;DHT22;23441;50.856;6.076;2024-02-04T04:00:44;9.50;99.90
37594;DHT22;23441;50.856;6.076;2024-02-04T04:03:30;9.50;99.90
37594;DHT22;23441;50.856;6.076;2024-02-04T04:06:16;9.50;99.90
37594;DHT22;23441;50.856;6.076;2024-02-04T04:09:02;9.50;99.90
37594;DHT22;23441;50.856;6.076;2024-02-04T04:11:48;9.50;99.90
37594;DHT22;23441;50.856;6.076;2024-02-04T04:14:34;9.50;99.90
37594;DHT22;23441;50.856;6.076;2024-02-04T04:17:20;9.50;99.90
37594;DHT22;23441;50.856;6.076;2024-02-04T04:20:07;9.50;99.90
37594;DHT22;23441;50.856;6.076;2024-02-04T04:22:53;9.50;99.90
37594;DHT22;23441;50.856;6.076;2024-02-04T04:25:39;9.50;99.90
37594;DHT22;23441;50.856;6.076;2024-02-04T04:28:25;9.60;99.90
37594;DHT22;23441;50.856;6.076;2024-02-04T04:31:11;9.50;99.90
37594;DHT22;23441;50.856;6.076;2024-02-04T04:33:57;9.50;99.90
37594;DHT22;23441;50.856;6.076;2024-02-04T04:36:43;9.50;99.90
37594;DHT22;23441;50.856;6.076;2024-02-04T04:39:28;9.50;99.90
37594;DHT22;23441;50.856;6.076;2024-02-04T04:42:14;9.50;99.90
37594;DHT22;23441;50.856;6.076;2024-02-04T04:45:00;9.50;99.90
37594;DHT22;23441;50.856;6.076;2024-02-04T04:47:46;9.50;99.90
37594;DHT22;23441;50.856;6.076;2024-02-04T04:50:34;9.50;99.90
37594;DHT22;23441;50.856;6.076;2024-02-04T04:53:19;9.60;99.90
37594;DHT22;23441;50.856;6.076;2024-02-04T04:56:06;9.50;99.90
37594;DHT22;23441;50.856;6.076;2024-02-04T04:58:52;9.50;99.90
37594;DHT22;23441;50.856;6.076;2024-02-04T05:01:45;9.50;99.90
37594;DHT22;23441;50.856;6.076;2024-02-04T05:04:32;9.50;99.90
37594;DHT22;23441;50.856;6.076;2024-02-04T05:07:18;9.50;99.90
37594;DHT22;23441;50.856;6.076;2024-02-04T05:10:04;9.50;99.90
37594;DHT22;23441;50.856;6.076;2024-02-04T05:12:50;9.60;99.90
37594;DHT22;23441;50.856;6.076;2024-02-04T05:15:36;9.50;99.90
37594;DHT22;23441;50.856;6.076;2024-02-04T05:18:22;9.50;99.90
37594;DHT22;23441;50.856;6.076;2024-02-04T05:21:12;9.50;99.90
37594;DHT22;23441;50.856;6.076;2024-02-04T05:23:58;9.50;99.90
37594;DHT22;23441;50.856;6.076;2024-02-04T05:26:44;9.60;99.90
37594;DHT22;23441;50.856;6.076;2024-02-04T05:29:31;9.50;99.90
37594;DHT22;23441;50.856;6.076;2024-02-04T05:32:17;9.50;99.90
37594;DHT22;23441;50.856;6.076;2024-02-04T05:35:03;9.50;99.90
37594;DHT22;23441;50.856;6.076;2024-02-04T05:37:49;9.50;99.90
37594;DHT22;23441;50.856;6.076;2024-02-04T05:40:35;9.50;99.90
37594;DHT22;23441;50.856;6.076;2024-02-04T05:43:21;9.50;99.90
37594;DHT22;23441;50.856;6.076;2024-02-04T05:46:07;9.50;99.90
37594;DHT22;23441;50.856;6.076;2024-02-04T05:48:53;9.50;99.90
37594;DHT22;23441;50.856;6.076;2024-02-04T05:51:39;9.50;99.90
37594;DHT22;23441;50.856;6.076;2024-02-04T05:54:28;9.50;99.90
37594;DHT22;23441;50.856;6.076;2024-02-04T05:57:14;9.50;99.90
37594;DHT22;23441;50.856;6.076;2024-02-04T06:00:01;9.50;99.90
37594;DHT22;23441;50.856;6.076;2024-02-04T06:02:47;9.50;99.90
37594;DHT22;23441;50.856;6.076;2024-02-04T06:05:33;9.50;99.90
37594;DHT22;23441;50.856;6.076;2024-02-04T06:08:19;9.50;99.90
37594;DHT22;23441;50.856;6.076;2024-02-04T06:11:05;9.50;99.90
37594;DHT22;23441;50.856;6.076;2024-02-04T06:13:51;9.50;99.90
37594;DHT22;23441;50.856;6.076;2024-02-04T06:16:37;9.50;99.90
37594;DHT22;23441;50.856;6.076;2024-02-04T06:19:23;9.50;99.90
37594;DHT22;23441;50.856;6.076;2024-02-04T06:22:09;9.50;99.90
37594;DHT22;23441;50.856;6.076;2024-02-04T06:24:55;9.50;99.90
37594;DHT22;23441;50.856;6.076;2024-02-04T06:27:41;9.50;99.90
37594;DHT22;23441;50.856;6.076;2024-02-04T06:30:27;9.50;99.90
37594;DHT22;23441;50.856;6.076;2024-02-04T06:33:12;9.50;99.90
37594;DHT22;23441;50.856;6.076;2024-02-04T06:35:58;9.50;99.90
37594;DHT22;23441;50.856;6.076;2024-02-04T06:38:44;9.50;99.90
37594;DHT22;23441;50.856;6.076;2024-02-04T06:41:30;9.50;99.90
37594;DHT22;23441;50.856;6.076;2024-02-04T06:44:18;9.50;99.90
37594;DHT22;23441;50.856;6.076;2024-02-04T06:47:04;9.40;99.90
37594;DHT22;23441;50.856;6.076;2024-02-04T06:49:50;9.50;99.90
37594;DHT22;23441;50.856;6.076;2024-02-04T06:52:36;9.40;99.90
37594;DHT22;23441;50.856;6.076;2024-02-04T06:55:22;9.50;99.90
37594;DHT22;23441;50.856;6.076;2024-02-04T06:58:08;9.50;99.90
37594;DHT22;23441;50.856;6.076;2024-02-04T07:00:54;9.50;99.90
37594;DHT22;23441;50.856;6.076;2024-02-04T07:03:40;9.50;99.90
37594;DHT22;23441;50.856;6.076;2024-02-04T07:06:26;9.50;99.90
37594;DHT22;23441;50.856;6.076;2024-02-04T07:09:12;9.50;99.90
37594;DHT22;23441;50.856;6.076;2024-02-04T07:11:58;9.50;99.90
37594;DHT22;23441;50.856;6.076;2024-02-04T07:14:44;9.50;99.90
37594;DHT22;23441;50.856;6.076;2024-02-04T07:17:30;9.50;99.90
37594;DHT22;23441;50.856;6.076;2024-02-04T07:20:15;9.50;99.90
37594;DHT22;23441;50.856;6.076;2024-02-04T07:23:01;9.50;99.90
37594;DHT22;23441;50.856;6.076;2024-02-04T07:25:48;9.50;99.90
37594;DHT22;23441;50.856;6.076;2024-02-04T07:28:34;9.50;99.90
37594;DHT22;23441;50.856;6.076;2024-02-04T07:31:20;9.50;99.90
37594;DHT22;23441;50.856;6.076;2024-02-04T07:34:07;9.50;99.90
37594;DHT22;23441;50.856;6.076;2024-02-04T07:36:53;9.50;99.90
37594;DHT22;23441;50.856;6.076;2024-02-04T07:39:39;9.50;99.90
37594;DHT22;23441;50.856;6.076;2024-02-04T07:42:25;9.50;99.90
37594;DHT22;23441;50.856;6.076;2024-02-04T07:45:11;9.50;99.90
37594;DHT22;23441;50.856;6.076;2024-02-04T07:47:57;9.50;99.90
37594;DHT22;23441;50.856;6.076;2024-02-04T07:50:43;9.50;99.90
37594;DHT22;23441;50.856;6.076;2024-02-04T07:53:29;9.60;99.90
37594;DHT22;23441;50.856;6.076;2024-02-04T07:56:15;9.50;99.90
37594;DHT22;23441;50.856;6.076;2024-02-04T07:59:01;9.60;99.90
37594;DHT22;23441;50.856;6.076;2024-02-04T08:01:49;9.50;99.90
37594;DHT22;23441;50.856;6.076;2024-02-04T08:04:35;9.60;99.90
37594;DHT22;23441;50.856;6.076;2024-02-04T08:07:21;9.60;99.90
37594;DHT22;23441;50.856;6.076;2024-02-04T08:10:07;9.60;99.90
37594;DHT22;23441;50.856;6.076;2024-02-04T08:12:53;9.60;99.90
37594;DHT22;23441;50.856;6.076;2024-02-04T08:15:39;9.60;99.90
37594;DHT22;23441;50.856;6.076;2024-02-04T08:18:26;9.60;99.90
37594;DHT22;23441;50.856;6.076;2024-02-04T08:21:12;9.60;99.90
37594;DHT22;23441;50.856;6.076;2024-02-04T08:23:58;9.60;99.90
37594;DHT22;23441;50.856;6.076;2024-02-04T08:26:44;9.60;99.90
37594;DHT22;23441;50.856;6.076;2024-02-04T08:29:30;9.70;99.90
37594;DHT22;23441;50.856;6.076;2024-02-04T08:32:16;9.60;99.90
37594;DHT22;23441;50.856;6.076;2024-02-04T08:35:02;9.60;99.90
37594;DHT22;23441;50.856;6.076;2024-02-04T08:37:48;9.60;99.90
37594;DHT22;23441;50.856;6.076;2024-02-04T08:40:34;9.60;99.90
37594;DHT22;23441;50.856;6.076;2024-02-04T08:43:20;9.60;99.90
37594;DHT22;23441;50.856;6.076;2024-02-04T08:46:06;9.60;99.90
37594;DHT22;23441;50.856;6.076;2024-02-04T08:48:52;9.60;99.90
37594;DHT22;23441;50.856;6.076;2024-02-04T08:51:38;9.70;99.90
37594;DHT22;23441;50.856;6.076;2024-02-04T08:54:23;9.70;99.90
37594;DHT22;23441;50.856;6.076;2024-02-04T08:57:09;9.70;99.90
37594;DHT22;23441;50.856;6.076;2024-02-04T08:59:55;9.70;99.90
37594;DHT22;23441;50.856;6.076;2024-02-04T09:02:41;9.70;99.90
37594;DHT22;23441;50.856;6.076;2024-02-04T09:05:27;9.70;99.90
37594;DHT22;23441;50.856;6.076;2024-02-04T09:08:13;9.70;99.90
37594;DHT22;23441;50.856;6.076;2024-02-04T09:10:59;9.70;99.90
37594;DHT22;23441;50.856;6.076;2024-02-04T09:13:45;9.60;99.90
37594;DHT22;23441;50.856;6.076;2024-02-04T09:16:31;9.60;99.90
37594;DHT22;23441;50.856;6.076;2024-02-04T09:19:17;9.60;99.90
37594;DHT22;23441;50.856;6.076;2024-02-04T09:22:03;9.60;99.90
37594;DHT22;23441;50.856;6.076;2024-02-04T09:24:49;9.70;99.90
37594;DHT22;23441;50.856;6.076;2024-02-04T09:27:35;9.70;99.90
37594;DHT22;23441;50.856;6.076;2024-02-04T09:30:22;9.70;99.90
37594;DHT22;23441;50.856;6.076;2024-02-04T09:33:08;9.70;99.90
37594;DHT22;23441;50.856;6.076;2024-02-04T09:35:54;9.70;99.90
37594;DHT22;23441;50.856;6.076;2024-02-04T09:38:41;9.70;99.90
37594;DHT22;23441;50.856;6.076;2024-02-04T09:41:27;9.70;99.90
37594;DHT22;23441;50.856;6.076;2024-02-04T09:44:13;9.70;99.90
37594;DHT22;23441;50.856;6.076;2024-02-04T09:46:59;9.80;99.90
37594;DHT22;23441;50.856;6.076;2024-02-04T09:49:46;9.80;99.90
37594;DHT22;23441;50.856;6.076;2024-02-04T09:52:33;9.80;99.90
37594;DHT22;23441;50.856;6.076;2024-02-04T09:55:22;9.80;99.90
37594;DHT22;23441;50.856;6.076;2024-02-04T09:58:08;9.80;99.90
37594;DHT22;23441;50.856;6.076;2024-02-04T10:00:54;9.80;99.90
37594;DHT22;23441;50.856;6.076;2024-02-04T10:03:41;9.80;99.90
37594;DHT22;23441;50.856;6.076;2024-02-04T10:06:27;9.70;99.90
37594;DHT22;23441;50.856;6.076;2024-02-04T10:09:13;9.70;99.90
37594;DHT22;23441;50.856;6.076;2024-02-04T10:11:59;9.80;99.90
37594;DHT22;23441;50.856;6.076;2024-02-04T10:14:45;9.80;99.90
37594;DHT22;23441;50.856;6.076;2024-02-04T10:17:31;9.90;99.90
37594;DHT22;23441;50.856;6.076;2024-02-04T10:20:17;9.80;99.90
37594;DHT22;23441;50.856;6.076;2024-02-04T10:23:03;9.90;99.90
37594;DHT22;23441;50.856;6.076;2024-02-04T10:25:58;9.90;99.90
37594;DHT22;23441;50.856;6.076;2024-02-04T10:28:47;9.90;99.90
37594;DHT22;23441;50.856;6.076;2024-02-04T10:31:33;9.80;99.90
37594;DHT22;23441;50.856;6.076;2024-02-04T10:34:20;9.80;99.90
37594;DHT22;23441;50.856;6.076;2024-02-04T10:37:06;9.80;99.90
37594;DHT22;23441;50.856;6.076;2024-02-04T10:39:52;9.80;99.90
37594;DHT22;23441;50.856;6.076;2024-02-04T10:42:38;9.80;99.90
37594;DHT22;23441;50.856;6.076;2024-02-04T10:45:30;9.80;99.90
37594;DHT22;23441;50.856;6.076;2024-02-04T10:48:19;9.80;99.90
37594;DHT22;23441;50.856;6.076;2024-02-04T10:51:13;9.80;99.90
37594;DHT22;23441;50.856;6.076;2024-02-04T10:54:03;9.80;99.90
37594;DHT22;23441;50.856;6.076;2024-02-04T10:56:56;9.80;99.90
37594;DHT22;23441;50.856;6.076;2024-02-04T10:59:46;9.80;99.90
37594;DHT22;23441;50.856;6.076;2024-02-04T11:02:34;9.80;99.90
37594;DHT22;23441;50.856;6.076;2024-02-04T11:05:21;9.80;99.90
37594;DHT22;23441;50.856;6.076;2024-02-04T11:08:10;9.80;99.90
37594;DHT22;23441;50.856;6.076;2024-02-04T11:10:57;9.80;99.90
37594;DHT22;23441;50.856;6.076;2024-02-04T11:13:45;9.80;99.90
37594;DHT22;23441;50.856;6.076;2024-02-04T11:28:21;9.90;99.90
37594;DHT22;23441;50.856;6.076;2024-02-04T11:31:19;9.90;99.90
37594;DHT22;23441;50.856;6.076;2024-02-04T11:34:05;9.90;99.90
37594;DHT22;23441;50.856;6.076;2024-02-04T11:36:52;9.80;99.90
37594;DHT22;23441;50.856;6.076;2024-02-04T11:39:50;9.80;99.90
37594;DHT22;23441;50.856;6.076;2024-02-04T11:42:36;9.90;99.90
37594;DHT22;23441;50.856;6.076;2024-02-04T11:45:26;9.90;99.90
37594;DHT22;23441;50.856;6.076;2024-02-04T11:48:12;9.90;99.90
37594;DHT22;23441;50.856;6.076;2024-02-04T11:51:00;9.90;99.90
37594;DHT22;23441;50.856;6.076;2024-02-04T11:53:49;9.80;99.90
37594;DHT22;23441;50.856;6.076;2024-02-04T11:56:35;9.80;99.90
37594;DHT22;23441;50.856;6.076;2024-02-04T11:59:25;9.80;99.90
37594;DHT22;23441;50.856;6.076;2024-02-04T12:02:12;9.80;99.90
37594;DHT22;23441;50.856;6.076;2024-02-04T12:04:59;9.80;99.90
37594;DHT22;23441;50.856;6.076;2024-02-04T12:07:45;9.80;99.90
37594;DHT22;23441;50.856;6.076;2024-02-04T12:10:34;9.80;99.90
37594;DHT22;23441;50.856;6.076;2024-02-04T12:13:20;9.70;99.90
37594;DHT22;23441;50.856;6.076;2024-02-04T12:16:09;9.70;99.90
37594;DHT22;23441;50.856;6.076;2024-02-04T12:18:55;9.70;99.90
37594;DHT22;23441;50.856;6.076;2024-02-04T12:21:41;9.70;99.90
37594;DHT22;23441;50.856;6.076;2024-02-04T12:24:27;9.70;99.90
37594;DHT22;23441;50.856;6.076;2024-02-04T12:27:15;9.70;99.90
37594;DHT22;23441;50.856;6.076;2024-02-04T12:30:04;9.70;99.90
37594;DHT22;23441;50.856;6.076;2024-02-04T12:33:01;9.70;99.90
37594;DHT22;23441;50.856;6.076;2024-02-04T12:35:51;9.60;99.90
37594;DHT22;23441;50.856;6.076;2024-02-04T12:38:38;9.70;99.90
37594;DHT22;23441;50.856;6.076;2024-02-04T12:41:25;9.70;99.90
37594;DHT22;23441;50.856;6.076;2024-02-04T12:44:11;9.70;99.90
37594;DHT22;23441;50.856;6.076;2024-02-04T12:46:57;9.70;99.90
37594;DHT22;23441;50.856;6.076;2024-02-04T12:49:43;9.70;99.90
37594;DHT22;23441;50.856;6.076;2024-02-04T12:52:29;9.70;99.90
37594;DHT22;23441;50.856;6.076;2024-02-04T12:55:26;9.80;99.90
37594;DHT22;23441;50.856;6.076;2024-02-04T12:58:17;9.80;99.90
37594;DHT22;23441;50.856;6.076;2024-02-04T13:01:03;9.80;99.90
37594;DHT22;23441;50.856;6.076;2024-02-04T13:03:50;9.80;99.90
37594;DHT22;23441;50.856;6.076;2024-02-04T13:06:40;9.80;99.90
37594;DHT22;23441;50.856;6.076;2024-02-04T13:09:26;9.80;99.90
37594;DHT22;23441;50.856;6.076;2024-02-04T13:12:14;9.80;99.90
37594;DHT22;23441;50.856;6.076;2024-02-04T13:15:01;9.80;99.90
37594;DHT22;23441;50.856;6.076;2024-02-04T13:17:46;9.90;99.90
37594;DHT22;23441;50.856;6.076;2024-02-04T13:20:33;9.80;99.90
37594;DHT22;23441;50.856;6.076;2024-02-04T13:23:19;9.90;99.90
37594;DHT22;23441;50.856;6.076;2024-02-04T13:26:05;10.00;99.90
37594;DHT22;23441;50.856;6.076;2024-02-04T13:28:51;9.90;99.90
37594;DHT22;23441;50.856;6.076;2024-02-04T13:31:37;9.90;99.90
37594;DHT22;23441;50.856;6.076;2024-02-04T13:34:23;10.00;99.90
37594;DHT22;23441;50.856;6.076;2024-02-04T13:37:09;9.90;99.90
37594;DHT22;23441;50.856;6.076;2024-02-04T13:39:55;9.90;99.90
37594;DHT22;23441;50.856;6.076;2024-02-04T13:42:41;9.90;99.90
37594;DHT22;23441;50.856;6.076;2024-02-04T13:45:27;9.90;99.90
37594;DHT22;23441;50.856;6.076;2024-02-04T13:48:13;9.90;99.90
37594;DHT22;23441;50.856;6.076;2024-02-04T13:50:59;9.90;99.90
37594;DHT22;23441;50.856;6.076;2024-02-04T13:53:45;9.90;99.90
37594;DHT22;23441;50.856;6.076;2024-02-04T13:56:32;10.00;99.90
37594;DHT22;23441;50.856;6.076;2024-02-04T13:59:19;10.00;99.90
37594;DHT22;23441;50.856;6.076;2024-02-04T14:02:05;10.00;99.90
37594;DHT22;23441;50.856;6.076;2024-02-04T14:04:53;10.00;99.90
37594;DHT22;23441;50.856;6.076;2024-02-04T14:07:39;9.90;99.90
37594;DHT22;23441;50.856;6.076;2024-02-04T14:10:25;9.90;99.90
37594;DHT22;23441;50.856;6.076;2024-02-04T14:13:11;9.90;99.90
37594;DHT22;23441;50.856;6.076;2024-02-04T14:15:57;9.90;99.90
37594;DHT22;23441;50.856;6.076;2024-02-04T14:18:43;9.90;99.90
37594;DHT22;23441;50.856;6.076;2024-02-04T14:21:31;9.90;99.90
37594;DHT22;23441;50.856;6.076;2024-02-04T14:24:18;9.90;99.90
37594;DHT22;23441;50.856;6.076;2024-02-04T14:27:05;9.90;99.90
37594;DHT22;23441;50.856;6.076;2024-02-04T14:29:51;9.90;99.90
37594;DHT22;23441;50.856;6.076;2024-02-04T14:32:37;9.90;99.90
37594;DHT22;23441;50.856;6.076;2024-02-04T14:35:23;10.00;99.90
37594;DHT22;23441;50.856;6.076;2024-02-04T14:38:09;10.00;99.90
37594;DHT22;23441;50.856;6.076;2024-02-04T14:40:55;10.00;99.90
37594;DHT22;23441;50.856;6.076;2024-02-04T14:43:41;10.00;99.90
37594;DHT22;23441;50.856;6.076;2024-02-04T14:46:27;10.10;99.90
37594;DHT22;23441;50.856;6.076;2024-02-04T14:49:13;10.00;99.90
37594;DHT22;23441;50.856;6.076;2024-02-04T14:51:59;10.00;99.90
37594;DHT22;23441;50.856;6.076;2024-02-04T14:54:45;10.10;99.90
37594;DHT22;23441;50.856;6.076;2024-02-04T14:57:31;10.10;99.90
37594;DHT22;23441;50.856;6.076;2024-02-04T15:00:17;10.00;99.90
37594;DHT22;23441;50.856;6.076;2024-02-04T15:03:03;10.00;99.90
37594;DHT22;23441;50.856;6.076;2024-02-04T15:05:49;10.00;99.90
37594;DHT22;23441;50.856;6.076;2024-02-04T15:08:35;10.10;99.90
37594;DHT22;23441;50.856;6.076;2024-02-04T15:11:21;10.10;99.90
37594;DHT22;23441;50.856;6.076;2024-02-04T15:14:07;10.10;99.90
37594;DHT22;23441;50.856;6.076;2024-02-04T15:16:54;10.10;99.90
37594;DHT22;23441;50.856;6.076;2024-02-04T15:19:43;10.10;99.90
37594;DHT22;23441;50.856;6.076;2024-02-04T15:22:29;10.10;99.90
37594;DHT22;23441;50.856;6.076;2024-02-04T15:25:16;10.10;99.90
37594;DHT22;23441;50.856;6.076;2024-02-04T15:28:04;10.10;99.90
37594;DHT22;23441;50.856;6.076;2024-02-04T15:30:51;10.10;99.90
37594;DHT22;23441;50.856;6.076;2024-02-04T15:33:37;10.10;99.90
37594;DHT22;23441;50.856;6.076;2024-02-04T15:36:23;10.00;99.90
37594;DHT22;23441;50.856;6.076;2024-02-04T15:39:11;10.00;99.90
37594;DHT22;23441;50.856;6.076;2024-02-04T15:41:57;10.00;99.90
37594;DHT22;23441;50.856;6.076;2024-02-04T15:44:43;9.90;99.90
37594;DHT22;23441;50.856;6.076;2024-02-04T15:47:30;9.90;99.90
37594;DHT22;23441;50.856;6.076;2024-02-04T15:50:18;9.90;99.90
37594;DHT22;23441;50.856;6.076;2024-02-04T15:53:05;9.90;99.90
37594;DHT22;23441;50.856;6.076;2024-02-04T15:55:51;9.90;99.90
37594;DHT22;23441;50.856;6.076;2024-02-04T15:58:38;9.90;99.90
37594;DHT22;23441;50.856;6.076;2024-02-04T16:01:26;9.90;99.90
37594;DHT22;23441;50.856;6.076;2024-02-04T16:04:13;9.90;99.90
37594;DHT22;23441;50.856;6.076;2024-02-04T16:07:02;9.90;99.90
37594;DHT22;23441;50.856;6.076;2024-02-04T16:09:49;9.90;99.90
37594;DHT22;23441;50.856;6.076;2024-02-04T16:12:35;9.90;99.90
37594;DHT22;23441;50.856;6.076;2024-02-04T16:15:26;9.90;99.90
37594;DHT22;23441;50.856;6.076;2024-02-04T16:18:13;9.80;99.90
37594;DHT22;23441;50.856;6.076;2024-02-04T16:20:59;9.90;99.90
37594;DHT22;23441;50.856;6.076;2024-02-04T16:23:45;9.80;99.90
37594;DHT22;23441;50.856;6.076;2024-02-04T16:26:31;9.90;99.90
37594;DHT22;23441;50.856;6.076;2024-02-04T16:29:17;9.80;99.90
37594;DHT22;23441;50.856;6.076;2024-02-04T16:32:03;9.80;99.90
37594;DHT22;23441;50.856;6.076;2024-02-04T16:34:49;9.80;99.90
37594;DHT22;23441;50.856;6.076;2024-02-04T16:37:36;9.80;99.90
37594;DHT22;23441;50.856;6.076;2024-02-04T16:40:22;9.90;99.90
37594;DHT22;23441;50.856;6.076;2024-02-04T16:43:08;9.90;99.90
37594;DHT22;23441;50.856;6.076;2024-02-04T16:45:54;9.90;99.90
37594;DHT22;23441;50.856;6.076;2024-02-04T16:48:40;9.90;99.90
37594;DHT22;23441;50.856;6.076;2024-02-04T16:51:26;9.80;99.90
37594;DHT22;23441;50.856;6.076;2024-02-04T16:54:12;9.90;99.90
37594;DHT22;23441;50.856;6.076;2024-02-04T16:56:59;9.90;99.90
37594;DHT22;23441;50.856;6.076;2024-02-04T16:59:48;9.90;99.90
37594;DHT22;23441;50.856;6.076;2024-02-04T17:02:34;9.90;99.90
37594;DHT22;23441;50.856;6.076;2024-02-04T17:05:21;9.90;99.90
37594;DHT22;23441;50.856;6.076;2024-02-04T17:08:08;9.90;99.90
37594;DHT22;23441;50.856;6.076;2024-02-04T17:10:55;10.00;99.90
37594;DHT22;23441;50.856;6.076;2024-02-04T17:13:41;10.00;99.90
37594;DHT22;23441;50.856;6.076;2024-02-04T17:16:56;10.00;99.90
37594;DHT22;23441;50.856;6.076;2024-02-04T17:22:53;10.00;99.90
37594;DHT22;23441;50.856;6.076;2024-02-04T17:25:44;9.90;99.90
37594;DHT22;23441;50.856;6.076;2024-02-04T17:28:31;9.90;99.90
37594;DHT22;23441;50.856;6.076;2024-02-04T17:31:17;9.90;99.90
37594;DHT22;23441;50.856;6.076;2024-02-04T17:34:03;9.90;99.90
37594;DHT22;23441;50.856;6.076;2024-02-04T17:36:50;9.90;99.90
37594;DHT22;23441;50.856;6.076;2024-02-04T17:39:37;9.90;99.90
37594;DHT22;23441;50.856;6.076;2024-02-04T17:42:23;9.90;99.90
37594;DHT22;23441;50.856;6.076;2024-02-04T17:45:13;9.90;99.90
37594;DHT22;23441;50.856;6.076;2024-02-04T17:47:59;9.90;99.90
37594;DHT22;23441;50.856;6.076;2024-02-04T17:50:45;9.80;99.90
37594;DHT22;23441;50.856;6.076;2024-02-04T17:53:31;9.80;99.90
37594;DHT22;23441;50.856;6.076;2024-02-04T17:56:18;9.70;99.90
37594;DHT22;23441;50.856;6.076;2024-02-04T17:59:04;9.80;99.90
37594;DHT22;23441;50.856;6.076;2024-02-04T18:01:50;9.80;99.90
37594;DHT22;23441;50.856;6.076;2024-02-04T18:04:36;9.70;99.90